sensor_id;sensor_type;location;lat;lon;timestamp;temperature;humidity
18712;DHT22;9485;49.386;8.674;2023-05-25T00:00:29;17.30;41.90
18712;DHT22;9485;49.386;8.674;2023-05-25T00:05:50;17.30;41.80
18712;DHT22;9485;49.386;8.674;2023-05-25T00:11:12;17.30;41.90
18712;DHT22;9485;49.386;8.674;2023-05-25T00:16:34;17.30;41.80
18712;DHT22;9485;49.386;8.674;2023-05-25T00:21:55;17.30;41.80
18712;DHT22;9485;49.386;8.674;2023-05-25T00:27:16;17.30;41.80
18712;DHT22;9485;49.386;8.674;2023-05-25T00:32:38;17.30;41.80
18712;DHT22;9485;49.386;8.674;2023-05-25T00:37:59;17.30;41.90
18712;DHT22;9485;49.386;8.674;2023-05-25T00:43:20;17.30;41.40
18712;DHT22;9485;49.386;8.674;2023-05-25T00:48:42;17.20;41.80
18712;DHT22;9485;49.386;8.674;2023-05-25T00:54:02;17.30;41.90
18712;DHT22;9485;49.386;8.674;2023-05-25T00:59:27;17.30;41.90
18712;DHT22;9485;49.386;8.674;2023-05-25T01:04:56;17.30;41.90
18712;DHT22;9485;49.386;8.674;2023-05-25T01:10:21;17.30;42.00
18712;DHT22;9485;49.386;8.674;2023-05-25T01:15:44;17.30;42.00
18712;DHT22;9485;49.386;8.674;2023-05-25T01:21:10;17.30;42.00
18712;DHT22;9485;49.386;8.674;2023-05-25T01:26:43;17.40;42.00
18712;DHT22;9485;49.386;8.674;2023-05-25T01:32:07;17.30;42.00
18712;DHT22;9485;49.386;8.674;2023-05-25T01:37:30;17.30;42.10
18712;DHT22;9485;49.386;8.674;2023-05-25T01:42:51;17.30;42.00
18712;DHT22;9485;49.386;8.674;2023-05-25T01:48:22;17.30;42.00
18712;DHT22;9485;49.386;8.674;2023-05-25T01:53:53;17.30;42.10
18712;DHT22;9485;49.386;8.674;2023-05-25T01:59:21;17.50;42.40
18712;DHT22;9485;49.386;8.674;2023-05-25T02:04:45;17.20;42.20
18712;DHT22;9485;49.386;8.674;2023-05-25T02:10:08;17.10;42.30
18712;DHT22;9485;49.386;8.674;2023-05-25T02:15:31;17.00;42.50
18712;DHT22;9485;49.386;8.674;2023-05-25T02:20:52;16.90;42.60
18712;DHT22;9485;49.386;8.674;2023-05-25T02:26:14;16.70;42.60
18712;DHT22;9485;49.386;8.674;2023-05-25T02:31:35;16.50;42.80
18712;DHT22;9485;49.386;8.674;2023-05-25T02:36:56;16.20;43.00
18712;DHT22;9485;49.386;8.674;2023-05-25T02:42:20;16.00;43.10
18712;DHT22;9485;49.386;8.674;2023-05-25T02:47:40;15.80;43.50
18712;DHT22;9485;49.386;8.674;2023-05-25T02:53:02;15.60;43.70
18712;DHT22;9485;49.386;8.674;2023-05-25T02:58:25;15.40;44.00
18712;DHT22;9485;49.386;8.674;2023-05-25T03:03:57;15.10;44.20
18712;DHT22;9485;49.386;8.674;2023-05-25T03:09:19;15.20;44.40
18712;DHT22;9485;49.386;8.674;2023-05-25T03:14:43;15.10;45.20
18712;DHT22;9485;49.386;8.674;2023-05-25T03:20:06;15.10;44.90
18712;DHT22;9485;49.386;8.674;2023-05-25T03:25:32;15.10;45.40
18712;DHT22;9485;49.386;8.674;2023-05-25T03:30:54;15.10;45.00
18712;DHT22;9485;49.386;8.674;2023-05-25T03:36:15;15.00;45.10
18712;DHT22;9485;49.386;8.674;2023-05-25T03:41:36;15.00;45.20
18712;DHT22;9485;49.386;8.674;2023-05-25T03:46:58;15.00;45.40
18712;DHT22;9485;49.386;8.674;2023-05-25T03:52:19;14.90;45.50
18712;DHT22;9485;49.386;8.674;2023-05-25T03:57:40;14.90;45.60
18712;DHT22;9485;49.386;8.674;2023-05-25T04:03:03;14.90;45.70
18712;DHT22;9485;49.386;8.674;2023-05-25T04:08:24;15.00;46.10
18712;DHT22;9485;49.386;8.674;2023-05-25T04:13:46;15.00;46.00
18712;DHT22;9485;49.386;8.674;2023-05-25T04:19:08;15.00;46.10
18712;DHT22;9485;49.386;8.674;2023-05-25T04:24:29;15.10;46.30
18712;DHT22;9485;49.386;8.674;2023-05-25T04:29:50;15.10;46.20
18712;DHT22;9485;49.386;8.674;2023-05-25T04:35:35;15.20;46.30
18712;DHT22;9485;49.386;8.674;2023-05-25T04:40:56;15.20;46.40
18712;DHT22;9485;49.386;8.674;2023-05-25T04:46:17;15.30;46.40
18712;DHT22;9485;49.386;8.674;2023-05-25T04:51:40;15.40;46.50
18712;DHT22;9485;49.386;8.674;2023-05-25T04:57:02;15.50;46.70
18712;DHT22;9485;49.386;8.674;2023-05-25T05:02:24;15.50;46.50
18712;DHT22;9485;49.386;8.674;2023-05-25T05:07:47;15.60;46.60
18712;DHT22;9485;49.386;8.674;2023-05-25T05:13:10;15.70;46.70
18712;DHT22;9485;49.386;8.674;2023-05-25T05:18:33;15.90;46.70
18712;DHT22;9485;49.386;8.674;2023-05-25T05:23:56;16.00;46.60
18712;DHT22;9485;49.386;8.674;2023-05-25T05:29:17;16.10;46.80
18712;DHT22;9485;49.386;8.674;2023-05-25T05:34:39;16.20;46.90
18712;DHT22;9485;49.386;8.674;2023-05-25T05:40:11;16.30;46.90
18712;DHT22;9485;49.386;8.674;2023-05-25T05:45:34;16.40;46.80
18712;DHT22;9485;49.386;8.674;2023-05-25T05:50:55;16.50;46.70
18712;DHT22;9485;49.386;8.674;2023-05-25T05:56:19;16.50;46.60
18712;DHT22;9485;49.386;8.674;2023-05-25T06:01:44;16.80;46.70
18712;DHT22;9485;49.386;8.674;2023-05-25T06:07:05;16.90;46.60
18712;DHT22;9485;49.386;8.674;2023-05-25T06:12:29;17.00;46.50
18712;DHT22;9485;49.386;8.674;2023-05-25T06:17:52;17.20;46.50
18712;DHT22;9485;49.386;8.674;2023-05-25T06:23:13;17.40;46.40
18712;DHT22;9485;49.386;8.674;2023-05-25T06:28:37;17.50;46.30
18712;DHT22;9485;49.386;8.674;2023-05-25T06:33:58;17.70;46.40
18712;DHT22;9485;49.386;8.674;2023-05-25T06:39:19;17.80;46.20
18712;DHT22;9485;49.386;8.674;2023-05-25T06:44:42;18.00;46.30
18712;DHT22;9485;49.386;8.674;2023-05-25T06:50:04;18.20;46.30
18712;DHT22;9485;49.386;8.674;2023-05-25T06:55:25;18.40;46.30
18712;DHT22;9485;49.386;8.674;2023-05-25T07:00:48;18.70;46.40
18712;DHT22;9485;49.386;8.674;2023-05-25T07:06:09;18.90;46.20
18712;DHT22;9485;49.386;8.674;2023-05-25T07:11:31;19.30;46.20
18712;DHT22;9485;49.386;8.674;2023-05-25T07:16:54;19.80;46.60
18712;DHT22;9485;49.386;8.674;2023-05-25T07:22:15;20.60;47.10
18712;DHT22;9485;49.386;8.674;2023-05-25T07:27:37;21.70;47.70
18712;DHT22;9485;49.386;8.674;2023-05-25T07:33:00;23.00;46.70
18712;DHT22;9485;49.386;8.674;2023-05-25T07:38:21;24.40;46.90
18712;DHT22;9485;49.386;8.674;2023-05-25T07:43:41;26.20;44.80
18712;DHT22;9485;49.386;8.674;2023-05-25T07:49:04;26.20;44.90
18712;DHT22;9485;49.386;8.674;2023-05-25T07:54:30;27.00;44.00
18712;DHT22;9485;49.386;8.674;2023-05-25T07:59:51;27.80;43.20
18712;DHT22;9485;49.386;8.674;2023-05-25T08:05:13;28.50;43.20
18712;DHT22;9485;49.386;8.674;2023-05-25T08:10:34;29.20;42.00
18712;DHT22;9485;49.386;8.674;2023-05-25T08:15:55;29.80;41.30
18712;DHT22;9485;49.386;8.674;2023-05-25T08:21:17;30.30;40.50
18712;DHT22;9485;49.386;8.674;2023-05-25T08:26:38;30.80;39.90
18712;DHT22;9485;49.386;8.674;2023-05-25T08:31:59;31.20;39.50
18712;DHT22;9485;49.386;8.674;2023-05-25T08:37:21;31.90;39.10
18712;DHT22;9485;49.386;8.674;2023-05-25T08:42:43;32.00;38.20
18712;DHT22;9485;49.386;8.674;2023-05-25T08:48:09;32.20;37.90
18712;DHT22;9485;49.386;8.674;2023-05-25T08:53:36;32.60;36.90
18712;DHT22;9485;49.386;8.674;2023-05-25T08:59:03;32.70;36.80
18712;DHT22;9485;49.386;8.674;2023-05-25T09:04:28;32.80;36.20
18712;DHT22;9485;49.386;8.674;2023-05-25T09:09:50;32.90;36.60
18712;DHT22;9485;49.386;8.674;2023-05-25T09:15:12;33.00;36.00
18712;DHT22;9485;49.386;8.674;2023-05-25T09:20:33;32.90;35.30
18712;DHT22;9485;49.386;8.674;2023-05-25T09:25:55;32.70;35.10
18712;DHT22;9485;49.386;8.674;2023-05-25T09:31:17;32.40;35.30
18712;DHT22;9485;49.386;8.674;2023-05-25T09:36:38;32.40;35.20
18712;DHT22;9485;49.386;8.674;2023-05-25T09:42:01;32.20;34.40
18712;DHT22;9485;49.386;8.674;2023-05-25T09:47:22;32.00;34.40
18712;DHT22;9485;49.386;8.674;2023-05-25T09:52:44;31.90;34.70
18712;DHT22;9485;49.386;8.674;2023-05-25T09:58:06;32.50;35.10
18712;DHT22;9485;49.386;8.674;2023-05-25T10:03:27;32.10;34.60
18712;DHT22;9485;49.386;8.674;2023-05-25T10:08:48;32.20;34.70
18712;DHT22;9485;49.386;8.674;2023-05-25T10:14:15;32.30;34.40
18712;DHT22;9485;49.386;8.674;2023-05-25T10:19:47;32.50;33.80
18712;DHT22;9485;49.386;8.674;2023-05-25T10:25:15;32.70;34.20
18712;DHT22;9485;49.386;8.674;2023-05-25T10:30:44;32.70;33.80
18712;DHT22;9485;49.386;8.674;2023-05-25T10:36:06;32.90;33.90
18712;DHT22;9485;49.386;8.674;2023-05-25T10:41:28;33.00;34.20
18712;DHT22;9485;49.386;8.674;2023-05-25T10:46:50;33.20;33.50
18712;DHT22;9485;49.386;8.674;2023-05-25T10:52:11;33.20;33.20
18712;DHT22;9485;49.386;8.674;2023-05-25T10:57:37;33.30;33.10
18712;DHT22;9485;49.386;8.674;2023-05-25T11:02:59;33.40;33.50
18712;DHT22;9485;49.386;8.674;2023-05-25T11:08:20;33.50;33.20
18712;DHT22;9485;49.386;8.674;2023-05-25T11:13:43;33.60;33.30
18712;DHT22;9485;49.386;8.674;2023-05-25T11:19:13;33.70;32.80
18712;DHT22;9485;49.386;8.674;2023-05-25T11:24:35;33.70;33.00
18712;DHT22;9485;49.386;8.674;2023-05-25T11:29:56;33.70;32.80
18712;DHT22;9485;49.386;8.674;2023-05-25T11:35:20;33.60;33.10
18712;DHT22;9485;49.386;8.674;2023-05-25T11:40:41;33.40;33.30
18712;DHT22;9485;49.386;8.674;2023-05-25T11:46:01;33.50;33.60
18712;DHT22;9485;49.386;8.674;2023-05-25T11:51:30;33.00;33.20
18712;DHT22;9485;49.386;8.674;2023-05-25T11:56:51;33.70;33.20
18712;DHT22;9485;49.386;8.674;2023-05-25T12:02:15;33.80;33.20
18712;DHT22;9485;49.386;8.674;2023-05-25T12:07:41;33.90;33.20
18712;DHT22;9485;49.386;8.674;2023-05-25T12:13:05;33.90;32.40
18712;DHT22;9485;49.386;8.674;2023-05-25T12:18:28;33.90;32.60
18712;DHT22;9485;49.386;8.674;2023-05-25T12:23:52;33.90;32.80
18712;DHT22;9485;49.386;8.674;2023-05-25T12:29:13;34.00;32.30
18712;DHT22;9485;49.386;8.674;2023-05-25T12:34:35;34.10;32.60
18712;DHT22;9485;49.386;8.674;2023-05-25T12:39:57;34.20;32.60
18712;DHT22;9485;49.386;8.674;2023-05-25T12:45:17;34.40;32.70
18712;DHT22;9485;49.386;8.674;2023-05-25T12:50:38;34.50;32.70
18712;DHT22;9485;49.386;8.674;2023-05-25T12:56:17;34.60;32.30
18712;DHT22;9485;49.386;8.674;2023-05-25T13:01:39;34.50;31.90
18712;DHT22;9485;49.386;8.674;2023-05-25T13:07:05;34.50;32.00
18712;DHT22;9485;49.386;8.674;2023-05-25T13:12:28;34.60;32.30
18712;DHT22;9485;49.386;8.674;2023-05-25T13:17:50;35.00;32.10
18712;DHT22;9485;49.386;8.674;2023-05-25T13:23:12;35.70;31.90
18712;DHT22;9485;49.386;8.674;2023-05-25T13:28:35;36.30;31.40
18712;DHT22;9485;49.386;8.674;2023-05-25T13:33:56;36.70;30.60
18712;DHT22;9485;49.386;8.674;2023-05-25T13:39:17;36.90;30.30
18712;DHT22;9485;49.386;8.674;2023-05-25T13:44:42;37.10;30.20
18712;DHT22;9485;49.386;8.674;2023-05-25T13:50:04;36.90;29.10
18712;DHT22;9485;49.386;8.674;2023-05-25T13:55:25;36.80;29.30
18712;DHT22;9485;49.386;8.674;2023-05-25T14:00:48;36.50;29.20
18712;DHT22;9485;49.386;8.674;2023-05-25T14:06:09;36.10;29.10
18712;DHT22;9485;49.386;8.674;2023-05-25T14:11:30;35.70;29.70
18712;DHT22;9485;49.386;8.674;2023-05-25T14:16:53;35.40;29.80
18712;DHT22;9485;49.386;8.674;2023-05-25T14:22:14;34.90;29.40
18712;DHT22;9485;49.386;8.674;2023-05-25T14:27:35;34.50;29.80
18712;DHT22;9485;49.386;8.674;2023-05-25T14:32:58;34.10;30.00
18712;DHT22;9485;49.386;8.674;2023-05-25T14:38:19;33.80;29.80
18712;DHT22;9485;49.386;8.674;2023-05-25T14:43:40;33.30;29.80
18712;DHT22;9485;49.386;8.674;2023-05-25T14:49:03;32.70;29.90
18712;DHT22;9485;49.386;8.674;2023-05-25T14:54:24;32.10;30.10
18712;DHT22;9485;49.386;8.674;2023-05-25T14:59:44;31.50;30.40
18712;DHT22;9485;49.386;8.674;2023-05-25T15:05:07;31.00;30.70
18712;DHT22;9485;49.386;8.674;2023-05-25T15:10:29;30.50;31.00
18712;DHT22;9485;49.386;8.674;2023-05-25T15:15:49;30.10;31.50
18712;DHT22;9485;49.386;8.674;2023-05-25T15:21:15;29.80;31.70
18712;DHT22;9485;49.386;8.674;2023-05-25T15:26:36;29.50;32.00
18712;DHT22;9485;49.386;8.674;2023-05-25T15:31:57;29.30;32.10
18712;DHT22;9485;49.386;8.674;2023-05-25T15:37:20;29.00;32.20
18712;DHT22;9485;49.386;8.674;2023-05-25T15:42:40;28.70;32.40
18712;DHT22;9485;49.386;8.674;2023-05-25T15:48:01;28.50;32.70
18712;DHT22;9485;49.386;8.674;2023-05-25T15:53:24;28.30;33.00
18712;DHT22;9485;49.386;8.674;2023-05-25T15:58:46;28.20;33.30
18712;DHT22;9485;49.386;8.674;2023-05-25T16:04:07;28.10;33.20
18712;DHT22;9485;49.386;8.674;2023-05-25T16:09:29;28.00;33.30
18712;DHT22;9485;49.386;8.674;2023-05-25T16:14:50;27.90;33.50
18712;DHT22;9485;49.386;8.674;2023-05-25T16:20:11;27.80;33.50
18712;DHT22;9485;49.386;8.674;2023-05-25T16:25:33;27.70;33.50
18712;DHT22;9485;49.386;8.674;2023-05-25T16:30:55;27.60;33.60
18712;DHT22;9485;49.386;8.674;2023-05-25T16:36:15;27.70;33.80
18712;DHT22;9485;49.386;8.674;2023-05-25T16:41:37;27.50;33.80
18712;DHT22;9485;49.386;8.674;2023-05-25T16:46:59;27.40;33.90
18712;DHT22;9485;49.386;8.674;2023-05-25T16:52:20;27.30;34.00
18712;DHT22;9485;49.386;8.674;2023-05-25T16:57:42;27.20;36.30
18712;DHT22;9485;49.386;8.674;2023-05-25T17:03:03;26.90;36.00
18712;DHT22;9485;49.386;8.674;2023-05-25T17:08:25;26.50;35.60
18712;DHT22;9485;49.386;8.674;2023-05-25T17:13:47;26.20;35.60
18712;DHT22;9485;49.386;8.674;2023-05-25T17:19:08;26.00;35.70
18712;DHT22;9485;49.386;8.674;2023-05-25T17:24:29;25.90;35.90
18712;DHT22;9485;49.386;8.674;2023-05-25T17:29:51;25.90;35.90
18712;DHT22;9485;49.386;8.674;2023-05-25T17:35:12;25.90;36.00
18712;DHT22;9485;49.386;8.674;2023-05-25T17:40:33;25.90;35.90
18712;DHT22;9485;49.386;8.674;2023-05-25T17:45:55;25.90;35.90
18712;DHT22;9485;49.386;8.674;2023-05-25T17:51:17;25.80;35.80
18712;DHT22;9485;49.386;8.674;2023-05-25T17:56:39;25.80;35.80
18712;DHT22;9485;49.386;8.674;2023-05-25T18:02:02;25.70;35.70
18712;DHT22;9485;49.386;8.674;2023-05-25T18:07:47;25.70;35.90
18712;DHT22;9485;49.386;8.674;2023-05-25T18:13:08;25.60;36.00
18712;DHT22;9485;49.386;8.674;2023-05-25T18:18:30;25.50;36.00
18712;DHT22;9485;49.386;8.674;2023-05-25T18:23:51;25.50;36.40
18712;DHT22;9485;49.386;8.674;2023-05-25T18:29:12;25.40;36.50
18712;DHT22;9485;49.386;8.674;2023-05-25T18:34:34;25.30;36.70
18712;DHT22;9485;49.386;8.674;2023-05-25T18:39:54;25.20;36.80
18712;DHT22;9485;49.386;8.674;2023-05-25T18:45:15;25.10;37.10
18712;DHT22;9485;49.386;8.674;2023-05-25T18:50:36;25.00;37.10
18712;DHT22;9485;49.386;8.674;2023-05-25T18:55:59;24.90;37.40
18712;DHT22;9485;49.386;8.674;2023-05-25T19:01:20;24.80;37.50
18712;DHT22;9485;49.386;8.674;2023-05-25T19:06:42;24.70;37.60
18712;DHT22;9485;49.386;8.674;2023-05-25T19:12:03;24.50;37.90
18712;DHT22;9485;49.386;8.674;2023-05-25T19:17:25;24.40;38.00
18712;DHT22;9485;49.386;8.674;2023-05-25T19:22:47;24.30;38.20
18712;DHT22;9485;49.386;8.674;2023-05-25T19:28:08;24.10;38.50
18712;DHT22;9485;49.386;8.674;2023-05-25T19:33:28;23.90;38.50
18712;DHT22;9485;49.386;8.674;2023-05-25T19:38:50;23.80;38.90
18712;DHT22;9485;49.386;8.674;2023-05-25T19:44:11;23.60;39.20
18712;DHT22;9485;49.386;8.674;2023-05-25T19:49:32;23.50;39.20
18712;DHT22;9485;49.386;8.674;2023-05-25T19:54:54;23.40;39.50
18712;DHT22;9485;49.386;8.674;2023-05-25T20:00:18;23.20;39.80
18712;DHT22;9485;49.386;8.674;2023-05-25T20:05:40;23.10;40.30
18712;DHT22;9485;49.386;8.674;2023-05-25T20:11:02;23.00;40.10
18712;DHT22;9485;49.386;8.674;2023-05-25T20:16:23;22.90;40.30
18712;DHT22;9485;49.386;8.674;2023-05-25T20:21:44;22.80;40.40
18712;DHT22;9485;49.386;8.674;2023-05-25T20:27:06;22.70;40.50
18712;DHT22;9485;49.386;8.674;2023-05-25T20:32:26;22.60;40.80
18712;DHT22;9485;49.386;8.674;2023-05-25T20:37:47;22.50;40.80
18712;DHT22;9485;49.386;8.674;2023-05-25T20:43:09;22.40;41.10
18712;DHT22;9485;49.386;8.674;2023-05-25T20:48:30;22.30;41.30
18712;DHT22;9485;49.386;8.674;2023-05-25T20:53:51;22.20;41.40
18712;DHT22;9485;49.386;8.674;2023-05-25T20:59:13;22.10;41.50
18712;DHT22;9485;49.386;8.674;2023-05-25T21:04:33;22.00;41.80
18712;DHT22;9485;49.386;8.674;2023-05-25T21:09:54;21.90;41.70
18712;DHT22;9485;49.386;8.674;2023-05-25T21:15:18;21.80;41.90
18712;DHT22;9485;49.386;8.674;2023-05-25T21:20:39;21.80;42.20
18712;DHT22;9485;49.386;8.674;2023-05-25T21:25:59;21.70;42.10
18712;DHT22;9485;49.386;8.674;2023-05-25T21:31:22;21.60;42.30
18712;DHT22;9485;49.386;8.674;2023-05-25T21:36:43;21.50;42.60
18712;DHT22;9485;49.386;8.674;2023-05-25T21:42:04;21.40;42.50
18712;DHT22;9485;49.386;8.674;2023-05-25T21:47:26;21.30;42.60
18712;DHT22;9485;49.386;8.674;2023-05-25T21:52:47;21.30;42.90
18712;DHT22;9485;49.386;8.674;2023-05-25T21:58:07;21.20;43.00
18712;DHT22;9485;49.386;8.674;2023-05-25T22:03:29;21.10;43.20
18712;DHT22;9485;49.386;8.674;2023-05-25T22:08:50;20.90;43.30
18712;DHT22;9485;49.386;8.674;2023-05-25T22:14:10;20.90;43.30
18712;DHT22;9485;49.386;8.674;2023-05-25T22:19:32;20.70;43.50
18712;DHT22;9485;49.386;8.674;2023-05-25T22:24:52;20.70;43.90
18712;DHT22;9485;49.386;8.674;2023-05-25T22:30:13;20.60;43.90
18712;DHT22;9485;49.386;8.674;2023-05-25T22:35:35;20.10;43.80
18712;DHT22;9485;49.386;8.674;2023-05-25T22:40:56;20.40;44.20
18712;DHT22;9485;49.386;8.674;2023-05-25T22:46:17;20.40;44.30
18712;DHT22;9485;49.386;8.674;2023-05-25T22:51:39;20.30;44.40
18712;DHT22;9485;49.386;8.674;2023-05-25T22:57:00;20.20;44.70
18712;DHT22;9485;49.386;8.674;2023-05-25T23:02:21;20.10;44.70
18712;DHT22;9485;49.386;8.674;2023-05-25T23:07:42;20.00;44.80
18712;DHT22;9485;49.386;8.674;2023-05-25T23:13:04;19.90;45.00
18712;DHT22;9485;49.386;8.674;2023-05-25T23:18:25;19.80;45.70
18712;DHT22;9485;49.386;8.674;2023-05-25T23:23:48;19.80;45.20
18712;DHT22;9485;49.386;8.674;2023-05-25T23:29:08;19.70;45.50
18712;DHT22;9485;49.386;8.674;2023-05-25T23:34:29;19.60;45.50
18712;DHT22;9485;49.386;8.674;2023-05-25T23:39:51;19.60;45.70
18712;DHT22;9485;49.386;8.674;2023-05-25T23:45:11;19.50;45.90
18712;DHT22;9485;49.386;8.674;2023-05-25T23:50:32;19.40;45.90
18712;DHT22;9485;49.386;8.674;2023-05-25T23:55:55;19.40;46.10
